sensor_id;sensor_type;location;lat;lon;timestamp;pressure;altitude;pressure_sealevel;temperature;humidity
50933;BME280;36921;49.006;9.292;2023-06-05T00:00:14;98763.38;;;14.98;100.00
50933;BME280;36921;49.006;9.292;2023-06-05T00:02:39;98766.44;;;14.89;100.00
50933;BME280;36921;49.006;9.292;2023-06-05T00:05:05;98774.59;;;14.89;100.00
50933;BME280;36921;49.006;9.292;2023-06-05T00:07:34;98784.81;;;14.94;100.00
50933;BME280;36921;49.006;9.292;2023-06-05T00:09:59;98786.19;;;14.85;100.00
50933;BME280;36921;49.006;9.292;2023-06-05T00:12:24;98778.59;;;14.75;100.00
50933;BME280;36921;49.006;9.292;2023-06-05T00:14:50;98791.28;;;14.81;100.00
50933;BME280;36921;49.006;9.292;2023-06-05T00:17:15;98783.81;;;14.77;100.00
50933;BME280;36921;49.006;9.292;2023-06-05T00:19:41;98783.31;;;14.68;100.00
50933;BME280;36921;49.006;9.292;2023-06-05T00:22:07;98790.53;;;14.74;100.00
50933;BME280;36921;49.006;9.292;2023-06-05T00:24:32;98793.50;;;14.73;100.00
50933;BME280;36921;49.006;9.292;2023-06-05T00:26:57;98792.66;;;14.72;100.00
50933;BME280;36921;49.006;9.292;2023-06-05T00:29:23;98781.13;;;14.58;100.00
50933;BME280;36921;49.006;9.292;2023-06-05T00:31:48;98788.34;;;14.64;100.00
50933;BME280;36921;49.006;9.292;2023-06-05T00:34:13;98810.53;;;14.68;100.00
50933;BME280;36921;49.006;9.292;2023-06-05T00:36:39;98810.59;;;14.43;100.00
50933;BME280;36921;49.006;9.292;2023-06-05T00:39:06;98810.44;;;14.38;100.00
50933;BME280;36921;49.006;9.292;2023-06-05T00:41:31;98807.28;;;14.41;100.00
50933;BME280;36921;49.006;9.292;2023-06-05T00:43:57;98807.22;;;14.29;100.00
50933;BME280;36921;49.006;9.292;2023-06-05T00:46:23;98806.09;;;14.18;100.00
50933;BME280;36921;49.006;9.292;2023-06-05T00:48:49;98802.91;;;14.03;100.00
50933;BME280;36921;49.006;9.292;2023-06-05T00:51:15;98808.44;;;13.96;100.00
50933;BME280;36921;49.006;9.292;2023-06-05T00:53:42;98797.50;;;13.78;100.00
50933;BME280;36921;49.006;9.292;2023-06-05T00:56:09;98809.72;;;13.69;100.00
50933;BME280;36921;49.006;9.292;2023-06-05T00:58:35;98807.97;;;13.56;100.00
50933;BME280;36921;49.006;9.292;2023-06-05T01:01:01;98813.06;;;13.46;100.00
50933;BME280;36921;49.006;9.292;2023-06-05T01:03:30;98812.53;;;13.30;100.00
50933;BME280;36921;49.006;9.292;2023-06-05T01:05:59;98807.81;;;13.19;100.00
50933;BME280;36921;49.006;9.292;2023-06-05T01:08:32;98805.75;;;13.14;100.00
50933;BME280;36921;49.006;9.292;2023-06-05T01:11:07;98809.78;;;13.05;100.00
50933;BME280;36921;49.006;9.292;2023-06-05T01:13:35;98811.31;;;12.94;100.00
50933;BME280;36921;49.006;9.292;2023-06-05T01:16:00;98813.25;;;12.81;100.00
50933;BME280;36921;49.006;9.292;2023-06-05T01:18:29;98812.88;;;12.77;100.00
50933;BME280;36921;49.006;9.292;2023-06-05T01:21:00;98812.91;;;12.70;100.00
50933;BME280;36921;49.006;9.292;2023-06-05T01:23:27;98810.22;;;12.64;100.00
50933;BME280;36921;49.006;9.292;2023-06-05T01:25:56;98816.72;;;12.63;100.00
50933;BME280;36921;49.006;9.292;2023-06-05T01:28:28;98813.59;;;12.59;100.00
50933;BME280;36921;49.006;9.292;2023-06-05T01:31:09;98817.19;;;12.46;100.00
50933;BME280;36921;49.006;9.292;2023-06-05T01:33:44;98813.44;;;12.47;100.00
50933;BME280;36921;49.006;9.292;2023-06-05T01:36:15;98819.31;;;12.44;100.00
50933;BME280;36921;49.006;9.292;2023-06-05T01:38:41;98817.84;;;12.42;100.00
50933;BME280;36921;49.006;9.292;2023-06-05T01:41:09;98805.97;;;12.36;100.00
50933;BME280;36921;49.006;9.292;2023-06-05T01:43:38;98814.97;;;12.30;100.00
50933;BME280;36921;49.006;9.292;2023-06-05T01:46:05;98817.63;;;12.43;100.00
50933;BME280;36921;49.006;9.292;2023-06-05T01:48:33;98812.06;;;12.25;100.00
50933;BME280;36921;49.006;9.292;2023-06-05T01:50:59;98810.84;;;12.14;100.00
50933;BME280;36921;49.006;9.292;2023-06-05T01:53:25;98812.94;;;12.12;100.00
50933;BME280;36921;49.006;9.292;2023-06-05T01:55:51;98809.81;;;12.09;100.00
50933;BME280;36921;49.006;9.292;2023-06-05T01:58:23;98815.69;;;12.05;100.00
50933;BME280;36921;49.006;9.292;2023-06-05T02:00:48;98809.81;;;12.09;100.00
50933;BME280;36921;49.006;9.292;2023-06-05T02:03:14;98808.81;;;12.03;100.00
50933;BME280;36921;49.006;9.292;2023-06-05T02:05:43;98810.25;;;11.99;100.00
50933;BME280;36921;49.006;9.292;2023-06-05T02:08:08;98801.91;;;12.00;100.00
50933;BME280;36921;49.006;9.292;2023-06-05T02:10:38;98809.19;;;12.06;100.00
50933;BME280;36921;49.006;9.292;2023-06-05T02:13:08;98803.56;;;12.08;100.00
50933;BME280;36921;49.006;9.292;2023-06-05T02:15:34;98798.59;;;11.98;100.00
50933;BME280;36921;49.006;9.292;2023-06-05T02:18:01;98798.59;;;11.92;100.00
50933;BME280;36921;49.006;9.292;2023-06-05T02:20:28;98796.50;;;11.80;100.00
50933;BME280;36921;49.006;9.292;2023-06-05T02:22:54;98809.44;;;11.78;100.00
50933;BME280;36921;49.006;9.292;2023-06-05T02:25:23;98809.88;;;11.69;100.00
50933;BME280;36921;49.006;9.292;2023-06-05T02:27:53;98811.94;;;11.60;100.00
50933;BME280;36921;49.006;9.292;2023-06-05T02:30:18;98812.41;;;11.50;100.00
50933;BME280;36921;49.006;9.292;2023-06-05T02:32:44;98801.75;;;11.35;100.00
50933;BME280;36921;49.006;9.292;2023-06-05T02:35:13;98811.75;;;11.35;100.00
50933;BME280;36921;49.006;9.292;2023-06-05T02:37:40;98802.16;;;11.26;100.00
50933;BME280;36921;49.006;9.292;2023-06-05T02:40:10;98810.72;;;11.36;100.00
50933;BME280;36921;49.006;9.292;2023-06-05T02:42:36;98804.44;;;11.29;100.00
50933;BME280;36921;49.006;9.292;2023-06-05T02:45:02;98815.28;;;11.22;100.00
50933;BME280;36921;49.006;9.292;2023-06-05T02:47:27;98815.91;;;11.17;100.00
50933;BME280;36921;49.006;9.292;2023-06-05T02:49:54;98818.19;;;11.21;100.00
50933;BME280;36921;49.006;9.292;2023-06-05T02:52:20;98808.41;;;11.26;100.00
50933;BME280;36921;49.006;9.292;2023-06-05T02:54:46;98816.53;;;11.26;100.00
50933;BME280;36921;49.006;9.292;2023-06-05T02:57:11;98810.50;;;11.24;100.00
50933;BME280;36921;49.006;9.292;2023-06-05T02:59:37;98812.38;;;11.24;100.00
50933;BME280;36921;49.006;9.292;2023-06-05T03:02:08;98814.03;;;11.18;100.00
50933;BME280;36921;49.006;9.292;2023-06-05T03:04:33;98816.09;;;11.03;100.00
50933;BME280;36921;49.006;9.292;2023-06-05T03:06:59;98818.59;;;11.04;100.00
50933;BME280;36921;49.006;9.292;2023-06-05T03:09:29;98822.78;;;11.07;100.00
50933;BME280;36921;49.006;9.292;2023-06-05T03:11:56;98822.16;;;11.11;100.00
50933;BME280;36921;49.006;9.292;2023-06-05T03:14:21;98821.94;;;11.06;100.00
50933;BME280;36921;49.006;9.292;2023-06-05T03:16:46;98816.53;;;11.06;100.00
50933;BME280;36921;49.006;9.292;2023-06-05T03:19:12;98820.03;;;10.93;100.00
50933;BME280;36921;49.006;9.292;2023-06-05T03:21:38;98821.50;;;10.96;100.00
50933;BME280;36921;49.006;9.292;2023-06-05T03:24:06;98824.00;;;10.91;100.00
50933;BME280;36921;49.006;9.292;2023-06-05T03:26:32;98817.72;;;10.84;100.00
50933;BME280;36921;49.006;9.292;2023-06-05T03:28:58;98823.13;;;10.84;100.00
50933;BME280;36921;49.006;9.292;2023-06-05T03:31:23;98822.94;;;10.92;100.00
50933;BME280;36921;49.006;9.292;2023-06-05T03:33:49;98818.59;;;10.91;100.00
50933;BME280;36921;49.006;9.292;2023-06-05T03:36:16;98828.56;;;10.84;100.00
50933;BME280;36921;49.006;9.292;2023-06-05T03:38:43;98825.84;;;10.77;100.00
50933;BME280;36921;49.006;9.292;2023-06-05T03:41:09;98824.75;;;10.71;100.00
50933;BME280;36921;49.006;9.292;2023-06-05T03:43:35;98834.16;;;10.75;100.00
50933;BME280;36921;49.006;9.292;2023-06-05T03:46:01;98830.63;;;10.82;100.00
50933;BME280;36921;49.006;9.292;2023-06-05T03:48:27;98830.25;;;10.85;100.00
50933;BME280;36921;49.006;9.292;2023-06-05T03:50:52;98833.56;;;10.87;100.00
50933;BME280;36921;49.006;9.292;2023-06-05T03:53:19;98827.34;;;10.93;100.00
50933;BME280;36921;49.006;9.292;2023-06-05T03:55:44;98833.19;;;11.03;100.00
50933;BME280;36921;49.006;9.292;2023-06-05T03:58:12;98833.19;;;11.03;100.00
50933;BME280;36921;49.006;9.292;2023-06-05T04:00:42;98835.69;;;11.11;100.00
50933;BME280;36921;49.006;9.292;2023-06-05T04:03:08;98835.69;;;11.11;100.00
50933;BME280;36921;49.006;9.292;2023-06-05T04:05:34;98840.91;;;11.06;100.00
50933;BME280;36921;49.006;9.292;2023-06-05T04:08:00;98847.78;;;11.15;100.00
50933;BME280;36921;49.006;9.292;2023-06-05T04:10:26;98850.69;;;11.21;100.00
50933;BME280;36921;49.006;9.292;2023-06-05T04:12:52;98852.56;;;11.20;100.00
50933;BME280;36921;49.006;9.292;2023-06-05T04:15:17;98851.56;;;11.28;100.00
50933;BME280;36921;49.006;9.292;2023-06-05T04:17:43;98845.94;;;11.29;100.00
50933;BME280;36921;49.006;9.292;2023-06-05T04:20:09;98850.72;;;11.34;100.00
50933;BME280;36921;49.006;9.292;2023-06-05T04:22:39;98853.22;;;11.35;100.00
50933;BME280;36921;49.006;9.292;2023-06-05T04:25:04;98852.81;;;11.45;100.00
50933;BME280;36921;49.006;9.292;2023-06-05T04:27:30;98850.94;;;11.52;100.00
50933;BME280;36921;49.006;9.292;2023-06-05T04:29:56;98853.84;;;11.57;100.00
50933;BME280;36921;49.006;9.292;2023-06-05T04:32:21;98857.41;;;11.65;100.00
50933;BME280;36921;49.006;9.292;2023-06-05T04:34:56;98867.38;;;11.71;100.00
50933;BME280;36921;49.006;9.292;2023-06-05T04:37:21;98864.25;;;11.80;100.00
50933;BME280;36921;49.006;9.292;2023-06-05T04:39:50;98855.94;;;11.89;100.00
50933;BME280;36921;49.006;9.292;2023-06-05T04:42:16;98850.50;;;12.02;100.00
50933;BME280;36921;49.006;9.292;2023-06-05T04:44:42;98850.94;;;12.05;100.00
50933;BME280;36921;49.006;9.292;2023-06-05T04:47:08;98846.94;;;12.15;100.00
50933;BME280;36921;49.006;9.292;2023-06-05T04:49:33;98835.25;;;12.14;100.00
50933;BME280;36921;49.006;9.292;2023-06-05T04:51:58;98841.06;;;12.24;100.00
50933;BME280;36921;49.006;9.292;2023-06-05T04:54:24;98846.03;;;12.41;100.00
50933;BME280;36921;49.006;9.292;2023-06-05T04:56:50;98843.88;;;12.49;100.00
50933;BME280;36921;49.006;9.292;2023-06-05T04:59:15;98854.72;;;12.63;100.00
50933;BME280;36921;49.006;9.292;2023-06-05T05:01:40;98844.81;;;12.82;100.00
50933;BME280;36921;49.006;9.292;2023-06-05T05:04:06;98848.72;;;12.92;100.00
50933;BME280;36921;49.006;9.292;2023-06-05T05:06:31;98833.22;;;13.00;100.00
50933;BME280;36921;49.006;9.292;2023-06-05T05:08:56;98843.72;;;13.28;100.00
50933;BME280;36921;49.006;9.292;2023-06-05T05:11:22;98845.22;;;13.49;100.00
50933;BME280;36921;49.006;9.292;2023-06-05T05:13:47;98846.78;;;13.63;100.00
50933;BME280;36921;49.006;9.292;2023-06-05T05:16:12;98844.25;;;13.68;100.00
50933;BME280;36921;49.006;9.292;2023-06-05T05:18:39;98841.56;;;13.87;100.00
50933;BME280;36921;49.006;9.292;2023-06-05T05:21:05;98849.47;;;14.13;100.00
50933;BME280;36921;49.006;9.292;2023-06-05T05:23:32;98851.38;;;14.31;100.00
50933;BME280;36921;49.006;9.292;2023-06-05T05:25:57;98854.47;;;14.53;100.00
50933;BME280;36921;49.006;9.292;2023-06-05T05:28:23;98852.03;;;14.82;100.00
50933;BME280;36921;49.006;9.292;2023-06-05T05:30:48;98853.97;;;14.93;100.00
50933;BME280;36921;49.006;9.292;2023-06-05T05:33:13;98848.47;;;15.11;100.00
50933;BME280;36921;49.006;9.292;2023-06-05T05:35:40;98834.69;;;15.25;100.00
50933;BME280;36921;49.006;9.292;2023-06-05T05:38:07;98843.81;;;15.42;100.00
50933;BME280;36921;49.006;9.292;2023-06-05T05:40:32;98847.53;;;15.60;100.00
50933;BME280;36921;49.006;9.292;2023-06-05T05:42:58;98859.00;;;15.80;100.00
50933;BME280;36921;49.006;9.292;2023-06-05T05:45:23;98858.88;;;16.10;100.00
50933;BME280;36921;49.006;9.292;2023-06-05T05:47:48;98858.88;;;16.22;100.00
50933;BME280;36921;49.006;9.292;2023-06-05T05:50:14;98855.63;;;16.49;100.00
50933;BME280;36921;49.006;9.292;2023-06-05T05:52:39;98850.69;;;16.74;100.00
50933;BME280;36921;49.006;9.292;2023-06-05T05:55:05;98851.59;;;16.92;100.00
50933;BME280;36921;49.006;9.292;2023-06-05T05:57:31;98844.88;;;17.11;100.00
50933;BME280;36921;49.006;9.292;2023-06-05T05:59:56;98840.22;;;17.40;100.00
50933;BME280;36921;49.006;9.292;2023-06-05T06:02:21;98852.91;;;17.63;100.00
50933;BME280;36921;49.006;9.292;2023-06-05T06:04:47;98848.84;;;17.49;100.00
50933;BME280;36921;49.006;9.292;2023-06-05T06:07:13;98858.34;;;17.46;100.00
50933;BME280;36921;49.006;9.292;2023-06-05T06:09:39;98861.38;;;17.45;100.00
50933;BME280;36921;49.006;9.292;2023-06-05T06:12:04;98850.34;;;16.82;100.00
50933;BME280;36921;49.006;9.292;2023-06-05T06:14:33;98863.03;;;17.17;100.00
50933;BME280;36921;49.006;9.292;2023-06-05T06:16:58;98850.28;;;17.68;100.00
50933;BME280;36921;49.006;9.292;2023-06-05T06:19:24;98858.53;;;18.07;100.00
50933;BME280;36921;49.006;9.292;2023-06-05T06:21:51;98845.38;;;18.43;100.00
50933;BME280;36921;49.006;9.292;2023-06-05T06:24:17;98859.44;;;18.52;100.00
50933;BME280;36921;49.006;9.292;2023-06-05T06:26:45;98849.22;;;18.86;100.00
50933;BME280;36921;49.006;9.292;2023-06-05T06:29:14;98860.69;;;19.32;100.00
50933;BME280;36921;49.006;9.292;2023-06-05T06:31:39;98861.19;;;19.56;100.00
50933;BME280;36921;49.006;9.292;2023-06-05T06:36:42;98847.72;;;20.67;100.00
50933;BME280;36921;49.006;9.292;2023-06-05T06:39:09;98839.59;;;21.02;99.02
50933;BME280;36921;49.006;9.292;2023-06-05T06:41:35;98854.44;;;20.91;93.10
50933;BME280;36921;49.006;9.292;2023-06-05T06:44:01;98852.66;;;21.94;86.98
50933;BME280;36921;49.006;9.292;2023-06-05T06:46:27;98852.03;;;22.59;80.51
50933;BME280;36921;49.006;9.292;2023-06-05T06:48:52;98848.09;;;24.33;71.56
50933;BME280;36921;49.006;9.292;2023-06-05T06:51:17;98847.16;;;26.92;58.54
50933;BME280;36921;49.006;9.292;2023-06-05T06:53:43;98850.72;;;28.95;49.83
50933;BME280;36921;49.006;9.292;2023-06-05T06:56:09;98850.41;;;30.45;44.42
50933;BME280;36921;49.006;9.292;2023-06-05T06:58:35;98846.47;;;31.35;40.82
50933;BME280;36921;49.006;9.292;2023-06-05T07:01:01;98850.44;;;32.42;39.66
50933;BME280;36921;49.006;9.292;2023-06-05T07:03:27;98834.75;;;31.83;39.29
50933;BME280;36921;49.006;9.292;2023-06-05T07:05:52;98839.41;;;32.13;37.92
50933;BME280;36921;49.006;9.292;2023-06-05T07:08:17;98820.13;;;32.57;37.59
50933;BME280;36921;49.006;9.292;2023-06-05T07:10:42;98820.97;;;34.03;36.76
50933;BME280;36921;49.006;9.292;2023-06-05T07:13:08;98831.31;;;34.27;35.31
50933;BME280;36921;49.006;9.292;2023-06-05T07:15:33;98830.31;;;34.51;34.38
50933;BME280;36921;49.006;9.292;2023-06-05T07:17:59;98830.06;;;34.72;34.63
50933;BME280;36921;49.006;9.292;2023-06-05T07:20:25;98833.47;;;35.87;33.87
50933;BME280;36921;49.006;9.292;2023-06-05T07:22:50;98829.00;;;36.71;33.09
50933;BME280;36921;49.006;9.292;2023-06-05T07:25:15;98807.38;;;37.62;31.98
50933;BME280;36921;49.006;9.292;2023-06-05T07:27:43;98825.59;;;37.68;31.67
50933;BME280;36921;49.006;9.292;2023-06-05T07:30:09;98823.22;;;36.18;31.54
50933;BME280;36921;49.006;9.292;2023-06-05T07:32:35;98821.00;;;37.26;31.86
50933;BME280;36921;49.006;9.292;2023-06-05T07:35:01;98834.84;;;36.59;32.03
50933;BME280;36921;49.006;9.292;2023-06-05T07:37:27;98810.56;;;37.31;31.97
50933;BME280;36921;49.006;9.292;2023-06-05T07:39:52;98818.16;;;38.21;31.30
50933;BME280;36921;49.006;9.292;2023-06-05T07:42:19;98824.78;;;38.84;29.77
50933;BME280;36921;49.006;9.292;2023-06-05T07:44:44;98826.06;;;36.91;30.39
50933;BME280;36921;49.006;9.292;2023-06-05T07:47:09;98810.75;;;37.45;30.80
50933;BME280;36921;49.006;9.292;2023-06-05T07:49:35;98811.72;;;37.90;31.95
50933;BME280;36921;49.006;9.292;2023-06-05T07:52:00;98810.91;;;39.23;30.38
50933;BME280;36921;49.006;9.292;2023-06-05T07:54:26;98819.78;;;40.02;29.70
50933;BME280;36921;49.006;9.292;2023-06-05T07:56:51;98824.09;;;39.67;29.38
50933;BME280;36921;49.006;9.292;2023-06-05T07:59:17;98827.06;;;39.96;28.83
50933;BME280;36921;49.006;9.292;2023-06-05T08:01:47;98814.38;;;38.09;30.17
50933;BME280;36921;49.006;9.292;2023-06-05T08:04:14;98822.13;;;35.09;33.85
50933;BME280;36921;49.006;9.292;2023-06-05T08:06:40;98821.13;;;31.61;36.97
50933;BME280;36921;49.006;9.292;2023-06-05T08:09:07;98827.84;;;29.59;41.16
50933;BME280;36921;49.006;9.292;2023-06-05T08:11:36;98825.50;;;30.05;41.26
50933;BME280;36921;49.006;9.292;2023-06-05T08:14:02;98804.22;;;29.91;42.50
50933;BME280;36921;49.006;9.292;2023-06-05T08:16:29;98823.41;;;31.17;41.22
50933;BME280;36921;49.006;9.292;2023-06-05T08:18:54;98800.22;;;34.83;37.72
50933;BME280;36921;49.006;9.292;2023-06-05T08:21:20;98810.50;;;36.51;33.90
50933;BME280;36921;49.006;9.292;2023-06-05T08:23:45;98803.72;;;37.96;32.45
50933;BME280;36921;49.006;9.292;2023-06-05T08:26:11;98802.50;;;39.37;31.06
50933;BME280;36921;49.006;9.292;2023-06-05T08:28:40;98811.25;;;39.95;31.08
50933;BME280;36921;49.006;9.292;2023-06-05T08:31:06;98812.50;;;41.33;29.82
50933;BME280;36921;49.006;9.292;2023-06-05T08:33:36;98805.25;;;40.61;29.29
50933;BME280;36921;49.006;9.292;2023-06-05T08:36:02;98799.97;;;41.02;29.00
50933;BME280;36921;49.006;9.292;2023-06-05T08:38:29;98798.66;;;41.57;28.77
50933;BME280;36921;49.006;9.292;2023-06-05T08:41:06;98786.94;;;42.21;28.73
50933;BME280;36921;49.006;9.292;2023-06-05T08:43:36;98794.16;;;42.33;28.43
50933;BME280;36921;49.006;9.292;2023-06-05T08:46:02;98787.34;;;42.76;28.53
50933;BME280;36921;49.006;9.292;2023-06-05T08:48:32;98784.16;;;42.14;28.44
50933;BME280;36921;49.006;9.292;2023-06-05T08:51:00;98796.22;;;41.48;28.95
50933;BME280;36921;49.006;9.292;2023-06-05T08:53:28;98791.94;;;40.68;30.09
50933;BME280;36921;49.006;9.292;2023-06-05T08:55:57;98793.13;;;40.71;29.70
50933;BME280;36921;49.006;9.292;2023-06-05T08:58:22;98784.19;;;40.97;30.29
50933;BME280;36921;49.006;9.292;2023-06-05T09:00:48;98796.78;;;42.06;29.02
50933;BME280;36921;49.006;9.292;2023-06-05T09:03:14;98790.78;;;42.53;28.11
50933;BME280;36921;49.006;9.292;2023-06-05T09:05:45;98780.44;;;43.18;28.67
50933;BME280;36921;49.006;9.292;2023-06-05T09:08:10;98782.06;;;43.16;27.37
50933;BME280;36921;49.006;9.292;2023-06-05T09:10:35;98781.25;;;45.09;27.00
50933;BME280;36921;49.006;9.292;2023-06-05T09:13:02;98790.00;;;43.96;26.76
50933;BME280;36921;49.006;9.292;2023-06-05T09:15:30;98773.75;;;41.82;28.78
50933;BME280;36921;49.006;9.292;2023-06-05T09:18:06;98782.50;;;40.03;30.00
50933;BME280;36921;49.006;9.292;2023-06-05T09:20:34;98780.00;;;41.42;28.52
50933;BME280;36921;49.006;9.292;2023-06-05T09:23:04;98761.00;;;42.12;28.20
50933;BME280;36921;49.006;9.292;2023-06-05T09:25:46;98780.03;;;41.45;28.22
50933;BME280;36921;49.006;9.292;2023-06-05T09:28:15;98769.59;;;40.09;29.53
50933;BME280;36921;49.006;9.292;2023-06-05T09:31:01;98771.31;;;42.47;27.58
50933;BME280;36921;49.006;9.292;2023-06-05T09:33:32;98770.78;;;42.08;28.12
50933;BME280;36921;49.006;9.292;2023-06-05T09:36:02;98776.56;;;41.90;28.01
50933;BME280;36921;49.006;9.292;2023-06-05T09:38:28;98765.53;;;43.38;27.12
50933;BME280;36921;49.006;9.292;2023-06-05T09:41:02;98755.41;;;43.67;25.78
50933;BME280;36921;49.006;9.292;2023-06-05T09:43:28;98755.97;;;42.38;27.11
50933;BME280;36921;49.006;9.292;2023-06-05T09:45:53;98758.69;;;40.72;25.93
50933;BME280;36921;49.006;9.292;2023-06-05T09:48:19;98748.13;;;40.87;26.18
50933;BME280;36921;49.006;9.292;2023-06-05T09:50:45;98754.03;;;39.50;25.27
50933;BME280;36921;49.006;9.292;2023-06-05T09:53:15;98761.22;;;37.17;27.63
50933;BME280;36921;49.006;9.292;2023-06-05T09:55:41;98745.19;;;37.25;25.31
50933;BME280;36921;49.006;9.292;2023-06-05T09:58:11;98751.16;;;36.63;26.42
50933;BME280;36921;49.006;9.292;2023-06-05T10:00:39;98735.88;;;33.55;29.74
50933;BME280;36921;49.006;9.292;2023-06-05T10:03:08;98752.38;;;33.56;30.84
50933;BME280;36921;49.006;9.292;2023-06-05T10:05:38;98744.47;;;36.25;29.40
50933;BME280;36921;49.006;9.292;2023-06-05T10:08:06;98733.81;;;39.55;27.44
50933;BME280;36921;49.006;9.292;2023-06-05T10:10:32;98729.41;;;39.68;26.01
50933;BME280;36921;49.006;9.292;2023-06-05T10:13:00;98739.31;;;41.77;24.79
50933;BME280;36921;49.006;9.292;2023-06-05T10:15:26;98731.28;;;43.45;25.24
50933;BME280;36921;49.006;9.292;2023-06-05T10:17:52;98735.72;;;41.62;25.42
50933;BME280;36921;49.006;9.292;2023-06-05T10:20:18;98738.69;;;37.51;28.20
50933;BME280;36921;49.006;9.292;2023-06-05T10:22:44;98739.41;;;34.43;30.18
50933;BME280;36921;49.006;9.292;2023-06-05T10:25:10;98740.72;;;36.94;29.19
50933;BME280;36921;49.006;9.292;2023-06-05T10:30:32;98735.91;;;37.92;
50933;BME280;36921;49.006;9.292;2023-06-05T10:33:34;98734.78;;;40.56;26.89
50933;BME280;36921;49.006;9.292;2023-06-05T10:36:10;98738.47;;;40.27;26.31
50933;BME280;36921;49.006;9.292;2023-06-05T10:38:41;98739.50;;;42.60;25.96
50933;BME280;36921;49.006;9.292;2023-06-05T10:41:07;98729.59;;;43.78;24.79
50933;BME280;36921;49.006;9.292;2023-06-05T10:43:35;98734.38;;;41.81;24.92
50933;BME280;36921;49.006;9.292;2023-06-05T10:46:27;98731.97;;;42.84;24.87
50933;BME280;36921;49.006;9.292;2023-06-05T10:54:03;98725.50;;;42.80;24.49
50933;BME280;36921;49.006;9.292;2023-06-05T10:59:29;98713.97;;;43.90;24.09
50933;BME280;36921;49.006;9.292;2023-06-05T11:07:18;98711.69;;;40.07;26.10
50933;BME280;36921;49.006;9.292;2023-06-05T11:15:06;98710.75;;;43.57;23.48
50933;BME280;36921;49.006;9.292;2023-06-05T11:17:33;98712.97;;;44.27;23.33
50933;BME280;36921;49.006;9.292;2023-06-05T11:19:59;98708.53;;;43.99;22.83
50933;BME280;36921;49.006;9.292;2023-06-05T11:22:25;98704.00;;;43.74;23.24
50933;BME280;36921;49.006;9.292;2023-06-05T11:27:51;98706.94;;;44.22;22.22
50933;BME280;36921;49.006;9.292;2023-06-05T11:30:18;98708.50;;;44.73;23.08
50933;BME280;36921;49.006;9.292;2023-06-05T11:32:44;98694.38;;;42.17;23.71
50933;BME280;36921;49.006;9.292;2023-06-05T11:35:10;98680.56;;;42.98;23.97
50933;BME280;36921;49.006;9.292;2023-06-05T11:37:36;98698.47;;;42.99;23.32
50933;BME280;36921;49.006;9.292;2023-06-05T11:40:05;98690.53;;;41.86;23.97
50933;BME280;36921;49.006;9.292;2023-06-05T11:42:38;98683.00;;;43.00;23.10
50933;BME280;36921;49.006;9.292;2023-06-05T11:45:11;98682.41;;;43.16;22.91
50933;BME280;36921;49.006;9.292;2023-06-05T11:47:37;98692.38;;;44.87;22.09
50933;BME280;36921;49.006;9.292;2023-06-05T11:50:09;98686.72;;;44.12;22.02
50933;BME280;36921;49.006;9.292;2023-06-05T11:52:35;98687.28;;;44.04;23.01
50933;BME280;36921;49.006;9.292;2023-06-05T11:55:14;98678.16;;;42.59;22.50
50933;BME280;36921;49.006;9.292;2023-06-05T11:57:41;98659.19;;;43.48;23.44
50933;BME280;36921;49.006;9.292;2023-06-05T12:00:09;98695.34;;;45.39;23.24
50933;BME280;36921;49.006;9.292;2023-06-05T12:02:36;98680.66;;;46.26;22.84
50933;BME280;36921;49.006;9.292;2023-06-05T12:05:02;98675.91;;;44.94;21.83
50933;BME280;36921;49.006;9.292;2023-06-05T12:07:28;98681.00;;;43.62;23.19
50933;BME280;36921;49.006;9.292;2023-06-05T12:09:55;98686.59;;;42.21;23.52
50933;BME280;36921;49.006;9.292;2023-06-05T12:12:20;98661.84;;;42.18;23.52
50933;BME280;36921;49.006;9.292;2023-06-05T12:14:45;98677.41;;;42.06;23.83
50933;BME280;36921;49.006;9.292;2023-06-05T12:17:11;98666.75;;;43.62;22.79
50933;BME280;36921;49.006;9.292;2023-06-05T12:19:37;98664.09;;;44.92;22.31
50933;BME280;36921;49.006;9.292;2023-06-05T12:22:05;98660.75;;;44.07;22.27
50933;BME280;36921;49.006;9.292;2023-06-05T12:24:30;98665.78;;;44.23;22.74
50933;BME280;36921;49.006;9.292;2023-06-05T12:27:01;98669.56;;;42.62;22.83
50933;BME280;36921;49.006;9.292;2023-06-05T12:29:32;98674.34;;;38.67;25.77
50933;BME280;36921;49.006;9.292;2023-06-05T12:31:59;98661.28;;;37.18;27.01
50933;BME280;36921;49.006;9.292;2023-06-05T12:34:44;98663.78;;;36.63;27.93
50933;BME280;36921;49.006;9.292;2023-06-05T12:37:10;98646.88;;;38.61;26.00
50933;BME280;36921;49.006;9.292;2023-06-05T12:39:38;98648.69;;;38.94;25.10
50933;BME280;36921;49.006;9.292;2023-06-05T12:42:03;98656.09;;;40.95;24.26
50933;BME280;36921;49.006;9.292;2023-06-05T12:44:29;98658.34;;;41.40;24.45
50933;BME280;36921;49.006;9.292;2023-06-05T12:46:55;98656.25;;;40.24;24.66
50933;BME280;36921;49.006;9.292;2023-06-05T12:49:20;98642.81;;;39.63;24.92
50933;BME280;36921;49.006;9.292;2023-06-05T12:51:45;98638.78;;;37.25;26.18
50933;BME280;36921;49.006;9.292;2023-06-05T12:54:11;98629.22;;;38.23;25.60
50933;BME280;36921;49.006;9.292;2023-06-05T12:56:36;98645.66;;;39.74;25.30
50933;BME280;36921;49.006;9.292;2023-06-05T12:59:01;98637.59;;;40.16;24.69
50933;BME280;36921;49.006;9.292;2023-06-05T13:01:27;98628.31;;;41.39;23.72
50933;BME280;36921;49.006;9.292;2023-06-05T13:03:53;98630.94;;;41.75;23.01
50933;BME280;36921;49.006;9.292;2023-06-05T13:06:19;98619.56;;;41.05;23.28
50933;BME280;36921;49.006;9.292;2023-06-05T13:08:45;98631.72;;;41.05;23.80
50933;BME280;36921;49.006;9.292;2023-06-05T13:11:12;98628.56;;;40.89;23.30
50933;BME280;36921;49.006;9.292;2023-06-05T13:13:37;98634.47;;;41.93;23.65
50933;BME280;36921;49.006;9.292;2023-06-05T13:16:03;98633.91;;;39.43;24.08
50933;BME280;36921;49.006;9.292;2023-06-05T13:18:30;98639.06;;;39.20;24.12
50933;BME280;36921;49.006;9.292;2023-06-05T13:20:56;98635.81;;;41.01;22.82